Time;durP1;ratioP1;P1;durP2;ratioP2;P2;SDS_P1;SDS_P2;PMS_P1;PMS_P2;Temp;Humidity;BMP_temperature;BMP_pressure;BME280_temperature;BME280_humidity;BME280_pressure;Samples;Min_cycle;Max_cycle;Signal;HPM_P1;HPM_P2
2022/04/03 00:01:54;;;;;;;4.00;1.00;;;9.60;73.10;;;9.46;52.23;93832.16;5082757;28;21053;-56
2022/04/03 00:04:23;;;;;;;3.60;1.10;;;9.50;74.00;;;9.43;53.01;93835.09;5083661;28;20445;-59
2022/04/03 00:06:50;;;;;;;1.67;1.20;;;9.50;74.10;;;9.43;52.79;93842.97;5083583;28;20507;-59
2022/04/03 00:09:17;;;;;;;5.70;1.40;;;9.50;74.70;;;9.44;53.44;93831.50;5083904;28;20458;-53
2022/04/03 00:11:45;;;;;;;2.13;1.10;;;9.50;75.10;;;9.47;52.84;93833.81;5082824;28;20966;-58
2022/04/03 00:14:12;;;;;;;1.80;0.97;;;9.50;74.30;;;9.48;53.24;93832.81;5084128;28;20450;-58
2022/04/03 00:16:40;;;;;;;3.67;0.90;;;9.50;75.20;;;9.51;53.00;93829.84;5081573;28;20796;-55
2022/04/03 00:19:08;;;;;;;1.57;1.47;;;9.50;75.00;;;9.54;53.24;93834.78;5082754;28;21728;-55
2022/04/03 00:21:38;;;;;;;2.50;1.03;;;9.50;75.60;;;9.56;52.95;93835.47;5082126;28;20589;-54
2022/04/03 00:24:07;;;;;;;1.33;0.97;;;9.60;75.20;;;9.57;52.84;93844.97;5082322;28;20430;-58
2022/04/03 00:26:34;;;;;;;2.90;0.80;;;9.60;75.20;;;9.57;52.87;93834.47;5082629;28;20545;-57
2022/04/03 00:29:02;;;;;;;7.00;1.00;;;9.60;74.70;;;9.56;52.63;93840.72;5083775;28;20450;-55
2022/04/03 00:31:29;;;;;;;2.90;1.10;;;9.60;74.40;;;9.54;52.62;93828.72;5082303;28;20446;-58
2022/04/03 00:33:56;;;;;;;1.40;1.30;;;9.60;74.70;;;9.50;52.47;93829.03;5083510;28;20446;-55
2022/04/03 00:36:23;;;;;;;1.20;1.00;;;9.50;75.40;;;9.49;53.06;93834.47;5080131;28;20470;-54
2022/04/03 00:38:52;;;;;;;1.30;0.80;;;9.50;74.80;;;9.48;52.98;93824.94;5083261;28;20450;-56
2022/04/03 00:41:20;;;;;;;2.90;0.87;;;9.50;75.10;;;9.48;53.14;93835.44;5081224;28;20501;-58
2022/04/03 00:43:47;;;;;;;2.90;1.30;;;9.50;75.40;;;9.49;52.79;93837.88;5082352;28;20829;-57
2022/04/03 00:46:15;;;;;;;1.60;1.13;;;9.50;74.80;;;9.49;53.59;93837.06;5082851;28;20523;-59
2022/04/03 00:48:42;;;;;;;1.70;1.10;;;9.50;75.70;;;9.51;53.58;93861.34;5082673;28;20453;-58
2022/04/03 00:51:11;;;;;;;1.53;1.20;;;9.50;75.60;;;9.55;53.24;93865.31;5082561;28;20474;-57
2022/04/03 00:53:38;;;;;;;2.80;1.20;;;9.60;75.80;;;9.58;52.43;93864.19;5082137;28;20955;-58
2022/04/03 00:56:08;;;;;;;3.57;1.10;;;9.60;74.80;;;9.58;52.18;93857.13;5083053;28;20458;-55
2022/04/03 00:58:36;;;;;;;3.83;2.07;;;9.60;73.50;;;9.56;51.88;93860.88;5084697;28;20834;-59
2022/04/03 01:01:04;;;;;;;2.50;1.00;;;9.60;72.30;;;9.47;50.82;93849.56;5084832;28;20486;-55
2022/04/03 01:03:31;;;;;;;2.97;1.47;;;9.50;71.10;;;9.40;51.03;93859.03;5082266;28;20449;-58
2022/04/03 01:05:58;;;;;;;2.50;1.10;;;9.50;70.60;;;9.30;51.43;93859.16;5083861;28;20466;-56
2022/04/03 01:08:26;;;;;;;2.90;1.13;;;9.40;70.20;;;9.22;50.71;93867.81;5081964;28;20449;-55
2022/04/03 01:10:53;;;;;;;1.67;1.23;;;9.30;70.20;;;9.18;50.96;93863.84;5082635;28;20470;-58
2022/04/03 01:13:22;;;;;;;1.20;1.10;;;9.20;70.90;;;9.16;51.41;93842.19;5081955;28;20477;-56
2022/04/03 01:15:53;;;;;;;2.77;1.07;;;9.20;71.10;;;9.15;51.26;93851.88;5083223;28;20497;-58
2022/04/03 01:18:22;;;;;;;4.93;1.13;;;9.20;71.50;;;9.15;51.52;93845.78;5080453;28;20454;-55
2022/04/03 01:20:52;;;;;;;1.17;0.90;;;9.20;71.70;;;9.11;51.51;93847.09;5082914;28;20501;-54
2022/04/03 01:23:19;;;;;;;1.80;1.20;;;9.10;71.60;;;9.09;51.75;93847.25;5079473;28;21126;-58
2022/04/03 01:25:48;;;;;;;3.83;0.70;;;9.10;71.80;;;9.10;51.64;93853.31;5082270;28;20512;-53
2022/04/03 01:28:16;;;;;;;2.37;1.10;;;9.10;72.20;;;9.08;51.93;93856.09;5082425;28;20453;-54
2022/04/03 01:30:43;;;;;;;2.17;0.93;;;9.10;72.10;;;9.08;51.99;93855.28;5081337;28;20480;-58
2022/04/03 01:33:10;;;;;;;2.50;1.30;;;9.10;72.50;;;9.07;52.16;93853.63;5082860;28;20453;-58
2022/04/03 01:35:38;;;;;;;1.50;1.20;;;9.10;72.70;;;9.06;52.33;93846.72;5081209;28;20482;-58
2022/04/03 01:38:05;;;;;;;2.57;1.47;;;9.10;73.10;;;9.04;52.37;93852.13;5082733;28;20454;-54
2022/04/03 01:40:35;;;;;;;1.47;1.10;;;9.00;73.30;;;9.02;52.55;93853.28;5081111;28;20856;-55
2022/04/03 01:43:03;;;;;;;1.10;1.00;;;9.00;73.60;;;8.99;52.28;93854.41;5082678;28;20450;-59
2022/04/03 01:45:31;;;;;;;3.00;1.70;;;9.00;73.90;;;8.99;52.74;93849.16;5082197;28;21022;-57
2022/04/03 01:47:59;;;;;;;1.90;0.90;;;9.00;74.30;;;9.01;53.05;93854.25;5082598;28;20449;-57
2022/04/03 01:50:26;;;;;;;3.10;1.10;;;9.00;74.70;;;9.01;52.63;93851.63;5080829;28;20564;-53
2022/04/03 01:52:54;;;;;;;4.20;1.40;;;9.00;74.30;;;9.00;52.83;93849.97;5082432;28;20525;-61
2022/04/03 01:55:23;;;;;;;3.57;1.40;;;9.00;74.40;;;8.96;52.82;93845.03;5082307;28;20470;-55
2022/04/03 01:57:50;;;;;;;1.20;0.90;;;9.00;74.70;;;8.96;52.75;93841.59;5084283;28;20489;-58
2022/04/03 02:00:19;;;;;;;5.27;1.30;;;9.00;74.70;;;8.93;52.65;93834.03;5084429;28;20538;-58
2022/04/03 02:02:47;;;;;;;6.30;1.43;;;9.00;74.60;;;8.91;53.14;93828.97;5086956;28;21101;-58
2022/04/03 02:05:14;;;;;;;4.90;1.10;;;8.90;74.70;;;8.90;53.02;93836.97;5086328;28;20484;-59
2022/04/03 02:07:41;;;;;;;1.47;0.80;;;8.90;75.00;;;8.88;53.09;93841.56;5085491;28;20476;-58
2022/04/03 02:10:12;;;;;;;1.87;0.90;;;8.90;74.80;;;8.86;53.06;93841.72;5086077;28;20720;-59
2022/04/03 02:12:40;;;;;;;5.53;1.33;;;8.90;75.30;;;8.84;53.33;93837.59;5084958;28;20456;-54
2022/04/03 02:15:08;;;;;;;2.17;1.00;;;8.90;75.60;;;8.81;53.27;93830.84;5083641;28;20822;-59
2022/04/03 02:17:37;;;;;;;2.00;1.10;;;8.80;75.60;;;8.78;53.40;93825.91;5085201;28;20446;-58
2022/04/03 02:20:05;;;;;;;1.00;0.70;;;8.80;75.60;;;8.74;53.82;93822.78;5086695;28;20469;-55
2022/04/03 02:22:32;;;;;;;1.37;1.07;;;8.80;75.60;;;8.72;53.76;93829.16;5085127;28;20484;-59
2022/04/03 02:25:00;;;;;;;1.87;0.90;;;8.80;75.60;;;8.71;53.58;93822.28;5087141;28;20554;-54
2022/04/03 02:27:27;;;;;;;1.40;1.20;;;8.70;75.50;;;8.69;53.39;93816.34;5084726;28;20463;-58
2022/04/03 02:29:54;;;;;;;3.47;0.90;;;8.70;75.50;;;8.65;54.08;93812.41;5085744;28;20998;-56
2022/04/03 02:32:21;;;;;;;1.63;1.20;;;8.70;76.50;;;8.58;53.80;93820.91;5084534;28;20945;-57
2022/04/03 02:34:50;;;;;;;2.83;1.20;;;8.60;75.70;;;8.54;53.87;93832.66;5086129;28;20466;-53
2022/04/03 02:37:17;;;;;;;1.53;1.00;;;8.60;76.00;;;8.51;54.10;93830.34;5084223;28;20476;-56
2022/04/03 02:39:45;;;;;;;2.60;1.53;;;8.60;76.00;;;8.50;53.74;93839.16;5086362;28;20552;-54
2022/04/03 02:42:12;;;;;;;1.23;1.00;;;8.60;76.30;;;8.47;53.98;93847.31;5084589;28;20482;-58
2022/04/03 02:44:39;;;;;;;2.07;1.13;;;8.50;75.90;;;8.47;54.28;93846.53;5084685;28;20473;-55
2022/04/03 02:47:07;;;;;;;1.33;0.80;;;8.50;76.60;;;8.45;53.37;93846.66;5085711;28;20488;-57
2022/04/03 02:49:34;;;;;;;3.33;1.20;;;8.50;76.20;;;8.43;53.83;93846.81;5083570;28;20535;-55
2022/04/03 02:52:05;;;;;;;1.63;0.90;;;8.50;76.60;;;8.42;53.55;93839.06;5082792;28;20530;-54
2022/04/03 02:54:33;;;;;;;1.47;0.83;;;8.50;76.60;;;8.43;54.20;93843.34;5083974;28;20538;-56
2022/04/03 02:57:00;;;;;;;1.73;1.00;;;8.40;76.70;;;8.42;53.93;93833.84;5085645;28;21046;-59
2022/04/03 02:59:27;;;;;;;2.37;1.33;;;8.50;76.60;;;8.39;54.09;93849.88;5083780;28;21014;-58
2022/04/03 03:01:54;;;;;;;1.33;1.23;;;8.50;77.00;;;8.33;54.51;93840.00;5085239;28;20485;-58
2022/04/03 03:04:22;;;;;;;3.73;1.03;;;8.40;77.10;;;8.29;54.41;93854.34;5084706;28;21122;-55
2022/04/03 03:06:49;;;;;;;7.03;1.37;;;8.30;76.80;;;8.25;54.22;93840.75;5085567;28;20510;-57
2022/04/03 03:09:18;;;;;;;3.73;1.10;;;8.30;77.70;;;8.22;54.26;93851.53;5084014;28;20445;-54
2022/04/03 03:11:45;;;;;;;0.90;0.80;;;8.30;77.50;;;8.20;54.34;93843.81;5085412;28;20485;-54
2022/04/03 03:14:13;;;;;;;1.97;1.10;;;8.20;77.30;;;8.16;55.06;93849.50;5083716;28;20496;-58
2022/04/03 03:16:40;;;;;;;1.37;1.23;;;8.20;77.90;;;8.11;54.52;93857.81;5084596;28;20461;-54
2022/04/03 03:19:08;;;;;;;1.53;1.07;;;8.20;78.10;;;8.06;54.51;93865.31;5083678;28;20450;-55
2022/04/03 03:21:36;;;;;;;2.53;1.57;;;8.10;78.00;;;8.01;55.60;93857.06;5083323;28;20489;-57
2022/04/03 03:24:03;;;;;;;3.43;1.37;;;8.10;79.50;;;7.97;54.96;93863.59;5085197;28;20456;-58
2022/04/03 03:26:32;;;;;;;3.83;1.50;;;8.00;79.00;;;7.91;54.94;93862.38;5084039;28;20446;-57
2022/04/03 03:28:59;;;;;;;2.00;1.40;;;8.00;78.50;;;7.86;55.01;93868.06;5084328;28;20441;-55
2022/04/03 03:31:26;;;;;;;2.63;1.63;;;8.00;78.70;;;7.81;55.50;93857.22;5081291;28;20466;-58
2022/04/03 03:33:54;;;;;;;6.20;1.60;;;7.90;79.60;;;7.72;56.03;93868.56;5084988;28;20458;-59
2022/04/03 03:36:21;;;;;;;4.33;2.07;;;7.80;79.80;;;7.66;56.05;93880.44;5082450;28;20477;-57
2022/04/03 03:38:48;;;;;;;1.73;1.27;;;7.80;79.60;;;7.61;55.72;93884.47;5085240;28;20446;-56
2022/04/03 03:41:16;;;;;;;1.13;1.03;;;7.70;79.70;;;7.62;56.39;93883.50;5083683;28;20473;-58
2022/04/03 03:43:45;;;;;;;4.30;2.10;;;7.70;80.60;;;7.58;57.10;93890.81;5084698;28;20454;-57
2022/04/03 03:46:12;;;;;;;1.50;1.40;;;7.70;81.30;;;7.51;56.08;93887.97;5082680;28;20993;-56
2022/04/03 03:48:40;;;;;;;4.33;1.17;;;7.60;80.60;;;7.45;55.64;93899.00;5084123;28;20458;-55
2022/04/03 03:51:08;;;;;;;2.23;1.37;;;7.60;80.60;;;7.41;56.31;93897.66;5082994;28;20553;-57
2022/04/03 03:53:35;;;;;;;5.63;1.70;;;7.50;81.50;;;7.33;56.44;93897.56;5084750;28;20442;-55
2022/04/03 03:56:03;;;;;;;2.43;1.20;;;7.50;81.70;;;7.34;56.79;93905.25;5082729;28;20967;-59
2022/04/03 03:58:30;;;;;;;6.53;1.37;;;7.40;81.50;;;7.33;56.42;93903.59;5084340;28;20462;-53
2022/04/03 04:00:59;;;;;;;4.00;1.60;;;7.40;81.70;;;7.33;56.57;93905.41;5084072;28;20954;-58
2022/04/03 04:03:26;;;;;;;2.80;1.30;;;7.40;81.50;;;7.31;56.20;93912.53;5081862;28;20482;-55
2022/04/03 04:05:54;;;;;;;4.20;1.20;;;7.40;81.60;;;7.29;56.79;93922.34;5084044;28;20550;-54
2022/04/03 04:08:21;;;;;;;2.23;0.97;;;7.40;82.40;;;7.28;56.79;93918.06;5082797;28;20438;-58
2022/04/03 04:10:48;;;;;;;7.23;1.70;;;7.40;82.30;;;7.30;56.40;93924.00;5084466;28;20519;-57
2022/04/03 04:13:16;;;;;;;1.30;1.20;;;7.40;82.40;;;7.32;57.45;93929.91;5082087;28;20461;-56
2022/04/03 04:15:43;;;;;;;2.23;1.37;;;7.40;84.10;;;7.27;56.80;93922.47;5084861;28;20850;-54
2022/04/03 04:18:12;;;;;;;6.23;1.60;;;7.40;83.00;;;7.29;56.61;93948.50;5082070;28;20477;-60
2022/04/03 04:20:40;;;;;;;1.40;1.10;;;7.40;82.80;;;7.25;56.75;93947.97;5084532;28;21004;-55
2022/04/03 04:23:07;;;;;;;3.30;1.80;;;7.30;82.40;;;7.21;56.69;93964.09;5081872;28;20595;-58
2022/04/03 04:25:35;;;;;;;2.67;1.10;;;7.30;82.80;;;7.18;57.02;93967.78;5084159;28;20474;-56
2022/04/03 04:28:02;;;;;;;1.10;1.00;;;7.30;83.00;;;7.16;56.96;93967.94;5082194;28;20954;-58
2022/04/03 04:30:30;;;;;;;4.13;1.13;;;7.30;83.20;;;7.17;57.14;93973.97;5084289;28;20481;-54
2022/04/03 04:32:57;;;;;;;5.20;1.30;;;7.20;83.40;;;7.18;57.22;93971.22;5080906;28;20469;-58
2022/04/03 04:35:27;;;;;;;1.50;1.37;;;7.30;83.30;;;7.21;57.30;93974.53;5084738;28;20528;-54
2022/04/03 04:37:54;;;;;;;1.93;1.83;;;7.30;83.10;;;7.25;56.67;93978.50;5083340;28;20858;-57
2022/04/03 04:40:21;;;;;;;1.63;1.20;;;7.30;83.00;;;7.31;56.87;93972.69;5082241;28;21079;-56
2022/04/03 04:42:49;;;;;;;3.83;1.60;;;7.30;83.00;;;7.39;56.96;93972.00;5083089;28;21091;-54
2022/04/03 04:45:17;;;;;;;2.33;2.00;;;7.40;83.00;;;7.47;56.44;93983.41;5082182;28;20861;-54
2022/04/03 04:47:44;;;;;;;1.53;1.43;;;7.50;83.10;;;7.57;56.77;93980.75;5083452;28;20651;-58
2022/04/03 04:50:14;;;;;;;2.17;1.30;;;7.60;82.80;;;7.65;56.27;93975.63;5081934;28;20468;-56
2022/04/03 04:52:43;;;;;;;1.93;1.70;;;7.70;82.80;;;7.74;55.83;93981.78;5082949;28;20489;-55
2022/04/03 04:55:11;;;;;;;5.43;1.50;;;7.80;83.10;;;7.82;56.33;93979.28;5082441;28;20462;-58
2022/04/03 04:57:39;;;;;;;1.13;1.03;;;7.90;82.20;;;7.94;56.04;93981.69;5084143;28;20458;-57
2022/04/03 05:00:09;;;;;;;2.07;1.43;;;8.00;81.90;;;8.03;55.82;93991.28;5082133;28;20462;-55
2022/04/03 05:02:36;;;;;;;2.80;1.17;;;8.00;81.70;;;8.11;56.00;93993.19;5083071;28;20485;-57
2022/04/03 05:05:06;;;;;;;3.97;1.30;;;8.10;81.10;;;8.16;55.83;93994.38;5081290;28;20473;-56
2022/04/03 05:07:35;;;;;;;4.10;1.30;;;8.20;81.20;;;8.22;55.26;94000.84;5083211;28;20448;-59
2022/04/03 05:10:04;;;;;;;2.60;1.47;;;8.20;81.20;;;8.28;55.34;94004.66;5080127;28;20587;-56
2022/04/03 05:12:31;;;;;;;3.47;1.27;;;8.30;81.10;;;8.33;55.24;94008.47;5082809;28;20493;-56
2022/04/03 05:14:58;;;;;;;1.20;1.10;;;8.40;81.20;;;8.40;55.28;94011.34;5081571;28;20477;-55
2022/04/03 05:17:26;;;;;;;3.17;1.30;;;8.40;81.10;;;8.45;55.30;94017.00;5080475;28;21096;-55
2022/04/03 05:19:54;;;;;;;2.07;0.90;;;8.50;81.10;;;8.54;55.11;94007.44;5082507;28;20541;-56
2022/04/03 05:22:23;;;;;;;4.30;1.67;;;8.50;80.60;;;8.60;55.50;94010.28;5081097;28;20493;-59
2022/04/03 05:24:51;;;;;;;3.13;1.30;;;8.60;80.40;;;8.69;55.23;94013.81;5078714;28;20531;-55
2022/04/03 05:27:20;;;;;;;2.53;0.60;;;8.70;80.50;;;8.77;54.84;94018.31;5080653;28;20462;-61
2022/04/03 05:29:48;;;;;;;1.40;0.90;;;8.80;80.70;;;8.87;54.88;94028.69;5082336;28;20558;-55
2022/04/03 05:32:15;;;;;;;0.90;0.70;;;8.90;81.00;;;8.94;54.84;94027.13;5078789;28;20458;-59
2022/04/03 05:34:42;;;;;;;1.23;0.83;;;9.00;80.30;;;9.05;54.85;94031.31;5082484;28;20911;-53
2022/04/03 05:37:09;;;;;;;1.13;0.70;;;9.10;80.00;;;9.15;54.48;94026.81;5081467;28;20453;-58
2022/04/03 05:39:37;;;;;;;1.80;1.00;;;9.10;79.60;;;9.25;54.24;94027.53;5081608;28;20485;-60
2022/04/03 05:42:05;;;;;;;0.90;0.80;;;9.20;79.50;;;9.35;54.07;94029.25;5078635;28;20571;-59
2022/04/03 05:44:33;;;;;;;1.73;0.70;;;9.30;80.00;;;9.50;54.26;94032.97;5080812;28;20489;-59
2022/04/03 05:47:01;;;;;;;3.30;0.70;;;9.40;78.70;;;9.71;53.81;94027.34;5081070;28;20473;-58
2022/04/03 05:49:28;;;;;;;1.87;0.70;;;9.60;78.30;;;9.95;53.29;94031.91;5081334;28;20951;-58
2022/04/03 05:51:56;;;;;;;2.23;1.43;;;9.80;77.80;;;10.19;52.92;94040.88;5078798;28;20597;-55
2022/04/03 05:54:23;;;;;;;1.10;1.00;;;10.00;75.80;;;10.38;52.71;94035.41;5080531;28;20462;-60
2022/04/03 05:56:50;;;;;;;1.77;1.00;;;10.20;75.80;;;10.57;52.44;94041.38;5080959;28;20462;-56
2022/04/03 05:59:19;;;;;;;2.50;1.10;;;10.40;75.70;;;10.81;52.31;94047.69;5081074;28;20561;-58
2022/04/03 06:01:48;;;;;;;1.57;0.80;;;10.60;76.10;;;11.01;52.05;94054.28;5082027;28;20462;-58
2022/04/03 06:04:16;;;;;;;3.27;1.07;;;10.80;75.10;;;11.23;51.81;94046.72;5081254;28;20500;-59
2022/04/03 06:06:43;;;;;;;1.10;0.90;;;11.00;75.40;;;11.50;51.64;94047.41;5082136;28;20450;-60
2022/04/03 06:09:10;;;;;;;0.90;0.73;;;11.30;75.60;;;11.81;50.56;94053.59;5081163;28;20449;-64
2022/04/03 06:11:38;;;;;;;2.40;0.80;;;11.50;72.30;;;12.13;49.55;94049.28;5082060;28;20449;-56
2022/04/03 06:14:06;;;;;;;0.90;0.73;;;11.80;70.50;;;12.42;48.91;94058.38;5079071;28;20453;-57
2022/04/03 06:16:33;;;;;;;0.97;0.87;;;12.20;68.60;;;12.70;47.27;94052.66;5077561;28;20534;-60
2022/04/03 06:19:02;;;;;;;2.50;0.80;;;12.40;65.20;;;12.98;47.09;94052.16;5079465;28;20487;-58
2022/04/03 06:21:29;;;;;;;2.60;0.90;;;12.70;65.10;;;13.27;46.14;94062.84;5081067;28;20787;-55
2022/04/03 06:23:57;;;;;;;1.87;0.60;;;13.00;63.40;;;13.45;44.84;94056.50;5077619;28;20489;-59
2022/04/03 06:26:24;;;;;;;1.57;1.20;;;13.20;59.80;;;13.43;44.13;94069.03;5080287;28;20599;-57
2022/04/03 06:28:51;;;;;;;0.87;0.83;;;13.20;58.00;;;13.32;43.76;94064.97;5080036;28;20458;-55
2022/04/03 06:31:18;;;;;;;1.30;0.90;;;13.20;57.00;;;13.23;44.28;94069.50;5079332;28;20492;-61
2022/04/03 06:33:46;;;;;;;1.73;1.00;;;13.10;57.70;;;13.18;43.80;94069.19;5080342;28;20453;-62
2022/04/03 06:36:15;;;;;;;1.07;0.80;;;13.00;57.00;;;13.20;44.44;94071.66;5079367;28;21165;-60
2022/04/03 06:38:42;;;;;;;2.30;1.07;;;13.00;58.00;;;13.42;44.45;94075.34;5079991;28;20885;-57
2022/04/03 06:41:09;;;;;;;5.23;1.20;;;13.20;58.40;;;13.73;44.18;94063.88;5078966;28;20566;-56
2022/04/03 06:43:36;;;;;;;1.50;1.20;;;13.40;58.30;;;14.03;43.52;94070.00;5082533;28;20512;-59
2022/04/03 06:46:04;;;;;;;3.70;1.07;;;13.70;57.20;;;14.37;43.27;94073.94;5082489;28;20500;-55
2022/04/03 06:48:31;;;;;;;1.20;1.10;;;14.00;56.80;;;14.63;41.92;94080.63;5083277;28;20723;-57
2022/04/03 06:50:59;;;;;;;2.90;1.00;;;14.30;55.10;;;14.80;41.36;94074.13;5081865;28;20534;-61
2022/04/03 06:53:27;;;;;;;1.73;0.90;;;14.50;54.00;;;14.90;40.27;94084.41;5087122;28;20450;-55
2022/04/03 06:55:55;;;;;;;1.20;1.00;;;14.60;52.50;;;14.87;40.65;94087.44;5082219;28;20461;-56
2022/04/03 06:58:22;;;;;;;2.90;0.90;;;14.70;52.30;;;14.95;40.95;94087.34;5085318;28;20836;-55
2022/04/03 07:00:49;;;;;;;1.23;0.97;;;14.70;52.60;;;15.02;40.33;94093.50;5082912;28;20919;-55
2022/04/03 07:03:17;;;;;;;10.10;1.30;;;14.80;52.00;;;15.06;40.30;94094.78;5084830;28;20489;-55
2022/04/03 07:05:44;;;;;;;3.80;0.80;;;14.90;51.30;;;15.16;40.71;94093.66;5083266;28;21096;-54
2022/04/03 07:08:11;;;;;;;1.87;1.13;;;14.90;52.80;;;15.23;40.59;94099.88;5084930;28;21106;-56
2022/04/03 07:10:40;;;;;;;1.70;1.00;;;15.00;52.30;;;15.27;40.35;94114.38;5082832;28;21013;-56
2022/04/03 07:13:07;;;;;;;1.47;0.80;;;15.10;51.90;;;15.44;39.66;94106.19;5083831;28;20450;-56
2022/04/03 07:15:34;;;;;;;2.03;0.80;;;15.20;51.10;;;15.36;39.07;94113.25;5081470;28;20481;-61
2022/04/03 07:18:02;;;;;;;1.33;0.80;;;15.10;50.00;;;15.01;39.25;94114.88;5080040;28;21050;-55
2022/04/03 07:20:29;;;;;;;1.20;0.70;;;14.90;49.80;;;14.60;39.56;94129.44;5081426;28;20562;-63
2022/04/03 07:22:57;;;;;;;3.10;0.93;;;14.60;50.10;;;14.24;40.97;94127.50;5081337;28;20505;-55
2022/04/03 07:25:24;;;;;;;1.30;0.50;;;14.20;51.60;;;13.96;41.66;94125.44;5082533;28;20582;-57
2022/04/03 07:27:53;;;;;;;1.20;0.67;;;13.90;53.10;;;13.75;42.79;94133.22;5081928;28;20461;-56
2022/04/03 07:30:20;;;;;;;1.00;0.90;;;13.70;54.20;;;13.54;42.62;94134.69;5081729;28;21042;-56
2022/04/03 07:32:48;;;;;;;2.20;1.40;;;13.50;54.10;;;13.37;43.82;94135.78;5080883;28;20819;-54
2022/04/03 07:35:15;;;;;;;1.30;1.10;;;13.30;55.60;;;13.24;44.39;94142.44;5084765;28;21010;-53
2022/04/03 07:37:43;;;;;;;1.47;0.87;;;13.20;57.00;;;13.19;44.81;94146.59;5080415;28;20461;-55
2022/04/03 07:40:12;;;;;;;2.50;1.10;;;13.10;57.70;;;13.16;45.68;94147.75;5083006;28;20588;-55
2022/04/03 07:42:40;;;;;;;2.53;0.90;;;13.10;58.50;;;13.14;45.46;94147.13;5081999;28;20962;-56
2022/04/03 07:45:11;;;;;;;1.00;0.80;;;13.00;58.80;;;13.08;45.82;94132.78;5081283;28;20531;-56
2022/04/03 07:47:46;;;;;;;1.30;0.90;;;13.00;59.80;;;13.06;46.54;94136.63;5081110;28;20920;-54
2022/04/03 07:50:14;;;;;;;1.00;0.90;;;13.00;61.00;;;13.03;47.19;94147.53;5083127;28;20462;-56
2022/04/03 07:52:42;;;;;;;3.67;2.93;;;12.90;62.00;;;13.01;46.80;94160.06;5076685;28;20458;-58
2022/04/03 07:55:10;;;;;;;2.43;2.20;;;12.90;61.40;;;12.96;46.93;94154.47;5081957;28;20470;-57
2022/04/03 07:57:39;;;;;;;1.37;1.23;;;12.90;61.70;;;13.09;47.71;94157.41;5083732;28;20450;-54
2022/04/03 08:00:11;;;;;;;6.40;1.27;;;13.00;63.60;;;13.62;48.04;94161.06;5080505;28;20556;-57
2022/04/03 08:02:38;;;;;;;4.70;0.80;;;13.50;64.90;;;14.35;47.31;94156.13;5077086;28;20537;-55
2022/04/03 08:05:07;;;;;;;1.10;1.00;;;14.20;64.50;;;15.06;46.53;94149.59;5080998;28;20744;-59
2022/04/03 08:07:37;;;;;;;8.60;1.43;;;14.90;62.90;;;15.89;46.43;94154.56;5082791;28;20462;-55
2022/04/03 08:10:08;;;;;;;2.13;0.93;;;15.70;63.70;;;16.58;44.80;94155.72;5081297;28;21013;-58
2022/04/03 08:12:35;;;;;;;1.10;0.83;;;16.40;60.60;;;16.87;43.71;94148.56;5082408;28;20442;-58
2022/04/03 08:15:04;;;;;;;1.00;0.77;;;16.80;58.60;;;16.88;42.31;94166.16;5081786;28;20481;-58
2022/04/03 08:17:32;;;;;;;1.83;1.60;;;16.90;55.40;;;16.80;41.86;94170.56;5082506;28;20512;-57
2022/04/03 08:20:00;;;;;;;4.10;1.27;;;16.90;54.70;;;16.70;42.09;94169.25;5080244;28;20565;-58
2022/04/03 08:22:27;;;;;;;1.73;1.27;;;16.70;54.50;;;16.49;42.06;94177.09;5080959;28;20465;-62
2022/04/03 08:24:54;;;;;;;3.53;0.93;;;16.60;54.00;;;16.19;41.37;94183.59;5081242;28;20524;-56
2022/04/03 08:27:22;;;;;;;1.10;1.00;;;16.30;52.30;;;15.85;42.25;94175.34;5080999;28;20446;-56
2022/04/03 08:29:50;;;;;;;4.07;1.30;;;16.00;53.60;;;15.55;42.98;94169.28;5080917;28;20492;-58
2022/04/03 08:32:17;;;;;;;1.23;0.83;;;15.70;54.70;;;15.45;43.10;94172.25;5080937;28;20532;-58
2022/04/03 08:34:46;;;;;;;1.30;0.83;;;15.50;54.90;;;15.48;43.37;94165.78;5081635;28;20482;-57
2022/04/03 08:37:13;;;;;;;1.43;1.07;;;15.50;55.20;;;15.47;43.31;94170.22;5080964;28;20553;-56
2022/04/03 08:39:41;;;;;;;1.50;1.40;;;15.50;55.60;;;15.40;43.42;94169.34;5081869;28;20470;-53
2022/04/03 08:42:10;;;;;;;1.23;1.07;;;15.40;55.40;;;15.27;42.88;94169.19;5082171;28;20458;-58
2022/04/03 08:44:38;;;;;;;0.90;0.83;;;15.30;55.40;;;15.13;43.41;94168.22;5081235;28;20964;-57
2022/04/03 08:47:06;;;;;;;1.53;1.00;;;15.10;55.30;;;15.01;43.31;94186.38;5081520;28;20437;-56
2022/04/03 08:49:33;;;;;;;3.13;0.80;;;15.00;55.20;;;14.97;42.99;94185.94;5081735;28;20485;-56
2022/04/03 08:52:02;;;;;;;0.80;0.60;;;14.90;54.70;;;15.10;43.02;94184.47;5079937;28;20943;-55
2022/04/03 08:54:30;;;;;;;0.93;0.73;;;15.00;55.10;;;15.39;42.67;94184.41;5080238;28;20531;-59
2022/04/03 08:56:57;;;;;;;1.37;0.50;;;15.20;55.00;;;15.72;41.11;94178.66;5080898;28;20455;-58
2022/04/03 08:59:25;;;;;;;0.90;0.70;;;15.40;53.10;;;15.89;40.92;94181.09;5081980;28;20486;-58
2022/04/03 09:01:53;;;;;;;0.80;0.60;;;15.60;52.70;;;15.92;40.57;94180.72;5077509;28;20461;-56
2022/04/03 09:04:21;;;;;;;0.90;0.40;;;15.70;51.50;;;15.85;40.39;94182.47;5080533;28;20490;-60
2022/04/03 09:06:56;;;;;;;3.00;0.53;;;15.70;51.60;;;15.71;40.26;94202.72;5077086;28;20997;-55
2022/04/03 09:09:27;;;;;;;1.67;1.10;;;15.60;51.30;;;15.54;40.65;94204.78;5078577;28;20450;-59
2022/04/03 09:12:11;;;;;;;2.70;1.23;;;15.40;51.00;;;15.34;41.12;94202.72;5080577;28;20461;-61
2022/04/03 09:14:46;;;;;;;4.77;4.23;;;15.30;52.30;;;15.15;41.49;94198.81;5078228;28;20863;-58
2022/04/03 09:17:13;;;;;;;3.80;1.77;;;15.10;52.90;;;14.92;41.24;94198.06;5077243;28;20961;-56
2022/04/03 09:19:41;;;;;;;4.53;1.90;;;14.90;52.80;;;14.66;42.28;94207.31;5079783;28;20462;-58
2022/04/03 09:22:08;;;;;;;7.30;5.30;;;14.60;53.50;;;14.46;42.65;94214.91;5078817;28;20572;-60
2022/04/03 09:24:48;;;;;;;10.53;3.40;;;14.40;54.00;;;14.24;43.62;94225.34;5080246;28;20489;-58
2022/04/03 09:27:15;;;;;;;3.50;2.37;;;14.20;55.10;;;14.08;43.46;94214.91;5079877;28;20552;-56
2022/04/03 09:29:46;;;;;;;7.50;2.90;;;14.00;55.00;;;13.94;43.75;94217.34;5081462;28;20474;-61
2022/04/03 09:32:15;;;;;;;2.80;2.47;;;13.90;55.50;;;13.81;44.11;94223.19;5080084;28;20549;-56
2022/04/03 09:34:44;;;;;;;10.40;1.87;;;13.80;55.90;;;13.69;44.21;94234.34;5084737;28;20477;-59
2022/04/03 09:37:11;;;;;;;4.50;1.67;;;13.60;55.90;;;13.56;44.86;94214.59;5085636;28;20507;-60
2022/04/03 09:39:40;;;;;;;3.53;1.20;;;13.50;56.90;;;13.51;44.74;94219.59;5079269;28;20482;-55
2022/04/03 09:42:09;;;;;;;1.90;1.80;;;13.40;57.90;;;13.53;44.13;94222.88;5081118;28;20631;-55
2022/04/03 09:44:37;;;;;;;1.60;1.20;;;13.40;56.30;;;13.57;43.60;94216.25;5077530;28;20716;-60
2022/04/03 09:47:21;;;;;;;1.80;1.70;;;13.40;55.80;;;13.62;43.23;94221.81;5080585;28;20461;-56
2022/04/03 09:49:53;;;;;;;2.60;0.97;;;13.40;54.50;;;13.74;43.01;94221.41;5077794;28;20481;-59
2022/04/03 09:52:40;;;;;;;1.80;0.70;;;13.50;55.20;;;14.03;43.11;94226.00;5081783;28;20464;-56
2022/04/03 09:55:17;;;;;;;1.37;1.27;;;13.80;55.30;;;14.33;42.67;94231.41;5078393;28;20473;-61
2022/04/03 09:57:44;;;;;;;1.50;1.10;;;14.00;55.00;;;14.41;42.24;94228.69;5082577;28;20442;-56
2022/04/03 10:00:14;;;;;;;5.27;1.60;;;14.20;54.40;;;14.39;42.61;94221.91;5080639;28;20474;-60
2022/04/03 10:02:47;;;;;;;5.10;1.10;;;14.20;55.00;;;14.42;42.45;94230.34;5080127;28;20556;-60
2022/04/03 10:05:14;;;;;;;3.87;1.53;;;14.20;54.50;;;14.53;42.67;94237.00;5077537;28;20609;-60
2022/04/03 10:07:42;;;;;;;1.90;1.40;;;14.30;55.00;;;14.68;42.64;94239.69;5078050;28;20454;-56
2022/04/03 10:10:11;;;;;;;4.30;1.83;;;14.50;54.60;;;14.77;42.06;94240.47;5076207;28;21188;-60
2022/04/03 10:12:39;;;;;;;3.00;1.90;;;14.50;53.90;;;14.77;41.74;94238.63;5080721;28;20954;-59
2022/04/03 10:15:07;;;;;;;4.77;1.80;;;14.60;53.30;;;14.77;41.66;94237.81;5079947;28;20485;-62
2022/04/03 10:17:34;;;;;;;3.57;1.90;;;14.60;52.80;;;14.74;41.74;94238.16;5082412;28;20450;-62
2022/04/03 10:20:02;;;;;;;2.70;1.63;;;14.60;53.20;;;14.73;41.16;94237.31;5083703;28;20549;-55
2022/04/03 10:22:32;;;;;;;6.83;2.93;;;14.60;52.60;;;14.72;41.27;94242.81;5082216;28;20453;-60
2022/04/03 10:25:06;;;;;;;2.40;1.43;;;14.60;52.60;;;14.75;41.81;94243.28;5084149;28;20493;-60
2022/04/03 10:27:37;;;;;;;2.40;1.37;;;14.60;53.30;;;14.82;41.61;94246.03;5084308;28;20461;-61
2022/04/03 10:30:06;;;;;;;3.67;1.70;;;14.70;53.10;;;14.83;40.93;94243.19;5083865;28;20569;-56
2022/04/03 10:32:34;;;;;;;3.10;1.63;;;14.70;52.30;;;14.80;40.42;94238.25;5083646;28;20468;-55